Time;durP1;ratioP1;P1;durP2;ratioP2;P2;SDS_P1;SDS_P2;PMS_P1;PMS_P2;Temp;Humidity;BMP_temperature;BMP_pressure;BME280_temperature;BME280_humidity;BME280_pressure;Samples;Min_cycle;Max_cycle;Signal;HPM_P1;HPM_P2
2023/05/29 00:02:25;;;;;;;11.25;4.30;;;;;;;21.76;69.94;99731.69;10539603;28;20051;-65
2023/05/29 00:07:25;;;;;;;12.82;4.28;;;;;;;21.80;69.87;99731.97;10540858;28;20036;-66
2023/05/29 00:12:26;;;;;;;11.88;4.07;;;;;;;21.76;69.90;99718.16;10540479;28;20044;-65
2023/05/29 00:17:27;;;;;;;12.48;5.32;;;;;;;21.64;71.13;99714.81;10539441;28;20031;-65
2023/05/29 00:22:28;;;;;;;11.98;4.32;;;;;;;21.43;72.07;99703.81;10540002;28;20122;-65
2023/05/29 00:27:29;;;;;;;15.82;4.97;;;;;;;20.92;73.10;99641.13;10540426;28;20151;-66
2023/05/29 00:32:30;;;;;;;14.73;5.22;;;;;;;20.83;73.30;99641.81;10540123;28;20047;-65
2023/05/29 00:37:31;;;;;;;15.20;4.80;;;;;;;20.59;74.17;99609.69;10537973;28;20071;-65
2023/05/29 00:42:31;;;;;;;11.73;4.88;;;;;;;20.96;75.36;99693.53;10539216;28;20043;-65
2023/05/29 00:47:32;;;;;;;15.25;5.43;;;;;;;20.65;76.34;99669.94;10539363;28;20040;-65
2023/05/29 00:52:33;;;;;;;14.93;5.10;;;;;;;20.56;77.34;99682.25;10537942;28;20051;-65
2023/05/29 00:57:35;;;;;;;16.23;5.18;;;;;;;20.33;78.76;99670.56;10538633;28;20047;-65
2023/05/29 01:02:40;;;;;;;10.43;4.88;;;;;;;20.27;82.17;99690.44;10537997;28;20520;-65
2023/05/29 01:07:42;;;;;;;10.73;4.45;;;;;;;20.10;82.36;99685.06;10538619;28;20036;-65
2023/05/29 01:13:04;;;;;;;7.75;4.60;;;;;;;19.97;86.63;99691.59;10538144;28;20605;-65
2023/05/29 01:18:19;;;;;;;41.15;7.13;;;;;;;19.83;84.60;99676.81;10536997;28;20040;-65
2023/05/29 01:23:51;;;;;;;37.85;7.63;;;;;;;19.80;88.39;99680.00;10538626;28;20032;-65
2023/05/29 01:28:56;;;;;;;14.93;5.33;;;;;;;19.54;85.63;99668.78;10538105;28;20055;-65
2023/05/29 01:34:00;;;;;;;21.35;5.22;;;;;;;19.36;86.41;99650.16;10537697;28;20105;-65
2023/05/29 01:39:01;;;;;;;45.20;6.57;;;;;;;19.36;86.60;99672.50;10538481;28;20419;-66
2023/05/29 01:44:08;;;;;;;24.05;5.93;;;;;;;19.30;88.58;99668.09;10538022;28;20610;-65
2023/05/29 01:49:10;;;;;;;33.30;6.38;;;;;;;19.35;87.00;99681.66;10542369;28;20044;-65
2023/05/29 01:54:11;;;;;;;23.02;6.20;;;;;;;18.83;86.64;99592.91;10545867;28;20100;-65
2023/05/29 01:59:13;;;;;;;18.05;5.47;;;;;;;19.18;87.42;99659.25;10545960;28;20561;-65
2023/05/29 02:04:13;;;;;;;52.80;7.82;;;;;;;19.27;88.21;99675.84;10546149;28;20512;-65
2023/05/29 02:09:17;;;;;;;53.22;7.32;;;;;;;18.97;89.74;99614.19;10545286;28;20048;-65
2023/05/29 02:14:18;;;;;;;30.10;6.37;;;;;;;19.57;88.52;99691.72;10545389;28;20123;-65
2023/05/29 02:19:19;;;;;;;25.38;6.13;;;;;;;19.70;87.74;99674.47;10544931;28;20282;-65
2023/05/29 02:24:20;;;;;;;27.40;5.97;;;;;;;20.03;86.53;99696.00;10544284;28;20127;-65
2023/05/29 02:29:21;;;;;;;22.35;6.38;;;;;;;20.30;85.98;99681.84;10545215;28;20052;-65
2023/05/29 02:34:24;;;;;;;15.07;4.95;;;;;;;20.64;83.17;99668.28;10542641;28;20034;-65
2023/05/29 02:39:25;;;;;;;22.60;5.70;;;;;;;21.27;79.95;99683.09;10542968;28;20487;-65
2023/05/29 02:44:26;;;;;;;17.25;5.78;;;;;;;21.25;77.82;99622.28;10543399;28;20085;-65
2023/05/29 02:49:26;;;;;;;18.52;5.68;;;;;;;21.80;75.14;99621.13;10543573;28;20089;-65
2023/05/29 02:54:27;;;;;;;12.63;4.43;;;;;;;22.81;73.48;99695.06;10543002;28;20047;-65
2023/05/29 02:59:28;;;;;;;14.00;4.70;;;;;;;23.27;71.96;99706.06;10540818;28;20036;-65
2023/05/29 03:04:29;;;;;;;8.95;4.22;;;;;;;23.75;69.96;99720.28;10542021;28;20051;-65
2023/05/29 03:09:30;;;;;;;11.60;5.28;;;;;;;23.61;68.94;99693.69;10543241;28;20519;-66
2023/05/29 03:14:35;;;;;;;22.15;5.53;;;;;;;23.92;68.52;99723.53;10542907;28;20528;-65
2023/05/29 03:19:37;;;;;;;20.98;5.85;;;;;;;23.82;68.29;99718.13;10542567;28;20093;-65
2023/05/29 03:24:38;;;;;;;14.10;5.15;;;;;;;23.97;66.79;99722.75;10542547;28;20032;-65
2023/05/29 03:29:39;;;;;;;14.00;5.35;;;;;;;23.34;66.05;99603.66;10542274;28;20059;-65
2023/05/29 03:34:40;;;;;;;15.30;6.03;;;;;;;23.74;65.78;99675.28;10542033;28;20051;-65
2023/05/29 03:39:41;;;;;;;18.63;6.10;;;;;;;23.60;66.73;99683.09;10541875;28;20038;-65
2023/05/29 03:44:42;;;;;;;20.73;5.65;;;;;;;23.81;65.91;99746.31;10541116;28;20052;-65
2023/05/29 03:49:42;;;;;;;15.90;5.80;;;;;;;23.66;65.71;99730.81;10540452;28;20040;-65
2023/05/29 03:54:44;;;;;;;15.48;5.68;;;;;;;23.64;65.52;99751.97;10540397;28;20039;-64
2023/05/29 03:59:45;;;;;;;27.77;6.43;;;;;;;23.55;65.69;99727.28;10540925;28;20032;-64
2023/05/29 04:04:46;;;;;;;19.88;6.43;;;;;;;24.02;65.08;99761.53;10540803;28;20487;-65
2023/05/29 04:09:47;;;;;;;20.20;5.50;;;;;;;24.22;63.09;99765.31;10537402;28;20047;-65
2023/05/29 04:14:48;;;;;;;37.58;8.32;;;;;;;24.41;63.71;99765.56;10526517;28;20032;-65
2023/05/29 04:19:49;;;;;;;21.48;5.90;;;;;;;24.62;62.55;99763.66;10538380;28;20040;-65
2023/05/29 04:24:49;;;;;;;12.95;5.70;;;;;;;24.91;62.67;99767.38;10538090;28;20051;-64
2023/05/29 04:29:50;;;;;;;16.60;6.05;;;;;;;25.11;63.61;99768.41;10538443;28;20060;-65
2023/05/29 04:34:51;;;;;;;18.55;6.13;;;;;;;25.13;63.32;99742.63;10539288;28;20503;-65
2023/05/29 04:39:52;;;;;;;18.17;5.25;;;;;;;25.15;63.96;99755.91;10539095;28;20522;-66
2023/05/29 04:44:53;;;;;;;12.85;5.00;;;;;;;25.03;60.88;99772.50;10537644;28;20043;-66
2023/05/29 04:49:54;;;;;;;14.60;5.13;;;;;;;24.60;58.84;99732.19;10537811;28;20048;-65
2023/05/29 04:54:56;;;;;;;17.15;5.10;;;;;;;24.90;57.83;99792.94;10539298;28;20119;-65
2023/05/29 04:59:57;;;;;;;17.13;5.20;;;;;;;24.82;56.77;99801.66;10539206;28;20036;-65
2023/05/29 05:04:58;;;;;;;11.73;4.88;;;;;;;24.86;56.70;99800.03;10537923;28;20043;-65
2023/05/29 05:09:59;;;;;;;15.75;4.80;;;;;;;24.47;55.74;99726.50;10538405;28;20054;-65
2023/05/29 05:15:00;;;;;;;9.20;4.68;;;;;;;25.30;54.82;99788.47;10538711;28;20122;-65
2023/05/29 05:20:05;;;;;;;13.25;5.03;;;;;;;25.87;52.97;99720.97;10537560;28;20050;-66
2023/05/29 05:25:06;;;;;;;18.05;4.43;;;;;;;27.14;50.83;99799.81;10537314;28;20043;-65
2023/05/29 05:30:08;;;;;;;11.60;4.60;;;;;;;27.65;49.31;99774.59;10538141;28;20095;-65
2023/05/29 05:35:11;;;;;;;8.98;4.22;;;;;;;28.09;49.66;99790.59;10537202;28;20040;-65
2023/05/29 05:40:12;;;;;;;13.50;4.57;;;;;;;28.36;47.48;99800.81;10537680;28;20035;-66
2023/05/29 05:45:13;;;;;;;10.75;3.85;;;;;;;28.31;46.42;99789.97;10537914;28;20399;-66
2023/05/29 05:50:15;;;;;;;8.13;3.30;;;;;;;28.38;47.31;99764.97;10537318;28;20043;-66
2023/05/29 05:55:16;;;;;;;11.07;4.10;;;;;;;28.32;46.99;99777.91;10536745;28;20047;-67
2023/05/29 06:00:17;;;;;;;20.27;4.10;;;;;;;28.28;47.58;99782.38;10536678;28;20408;-65
2023/05/29 06:05:18;;;;;;;9.20;3.42;;;;;;;28.19;47.63;99768.59;10537265;28;20039;-66
2023/05/29 06:10:18;;;;;;;17.08;4.10;;;;;;;28.12;48.96;99767.34;10537310;28;20040;-65
2023/05/29 06:15:19;;;;;;;8.00;4.32;;;;;;;27.82;49.23;99760.44;10536933;28;20048;-66
2023/05/29 06:20:21;;;;;;;8.57;3.53;;;;;;;27.60;49.41;99758.31;10536819;28;20097;-66
2023/05/29 06:25:21;;;;;;;18.13;4.03;;;;;;;27.63;50.79;99763.97;10536806;28;20067;-65
2023/05/29 06:30:22;;;;;;;18.70;4.30;;;;;;;27.50;49.96;99740.97;10537330;28;20062;-65
2023/05/29 06:35:23;;;;;;;6.03;3.58;;;;;;;27.45;50.92;99741.03;10541213;28;20447;-65
2023/05/29 06:40:23;;;;;;;12.98;4.22;;;;;;;27.27;51.74;99720.84;10544248;28;20062;-66
2023/05/29 06:45:24;;;;;;;31.92;4.68;;;;;;;26.83;51.68;99675.63;10544011;28;20412;-66
2023/05/29 06:50:25;;;;;;;8.43;3.70;;;;;;;26.97;51.96;99743.03;10543831;28;20040;-66
2023/05/29 06:55:26;;;;;;;9.75;3.83;;;;;;;26.74;52.89;99742.72;10543747;28;20514;-66
2023/05/29 07:00:27;;;;;;;11.10;4.38;;;;;;;26.41;53.47;99742.53;10543475;28;20070;-66
2023/05/29 07:05:28;;;;;;;13.25;3.97;;;;;;;26.17;54.00;99737.06;10543395;28;20579;-66
2023/05/29 07:10:29;;;;;;;21.80;4.20;;;;;;;25.21;54.46;99605.31;10542757;28;20079;-66
2023/05/29 07:15:29;;;;;;;15.52;4.40;;;;;;;25.87;56.95;99756.31;10542274;28;20043;-66
2023/05/29 07:20:30;;;;;;;11.65;4.38;;;;;;;25.25;59.73;99685.22;10542556;28;20039;-66
2023/05/29 07:25:31;;;;;;;11.18;4.90;;;;;;;25.47;63.08;99772.63;10543065;28;20434;-66
2023/05/29 07:30:32;;;;;;;19.83;4.85;;;;;;;25.38;66.46;99768.84;10542706;28;20064;-66
2023/05/29 07:35:33;;;;;;;15.10;5.38;;;;;;;24.86;69.05;99718.53;10542188;28;20568;-65
2023/05/29 07:40:34;;;;;;;10.80;4.80;;;;;;;25.15;69.81;99785.81;10541913;28;20097;-65
2023/05/29 07:45:35;;;;;;;9.13;4.75;;;;;;;25.17;70.92;99802.66;10541724;28;20085;-65
2023/05/29 07:50:36;;;;;;;14.32;5.10;;;;;;;25.19;71.33;99804.03;10541471;28;20048;-66
2023/05/29 07:55:37;;;;;;;12.95;4.35;;;;;;;25.27;70.26;99789.03;10540924;28;20123;-65
2023/05/29 08:00:38;;;;;;;18.63;4.25;;;;;;;25.42;69.72;99788.94;10540444;28;20605;-65
2023/05/29 08:05:39;;;;;;;10.88;4.30;;;;;;;25.72;70.31;99811.63;10540243;28;20289;-65
2023/05/29 08:10:40;;;;;;;14.13;6.35;;;;;;;25.85;69.94;99811.03;10540717;28;20054;-65
2023/05/29 08:15:41;;;;;;;46.80;24.85;;;;;;;25.63;70.39;99769.78;10538990;28;20043;-65
2023/05/29 08:20:42;;;;;;;27.20;7.20;;;;;;;25.34;70.54;99710.72;10536258;28;20048;-65
2023/05/29 08:25:43;;;;;;;16.85;6.80;;;;;;;25.62;71.58;99757.31;10531865;28;20025;-65
2023/05/29 08:30:44;;;;;;;13.32;6.60;;;;;;;25.48;73.24;99754.38;10514009;28;20443;-65
2023/05/29 08:35:45;;;;;;;13.48;6.60;;;;;;;25.68;74.32;99745.28;10513515;28;20036;-65
2023/05/29 08:40:48;;;;;;;15.48;5.75;;;;;;;25.52;73.20;99671.16;10521011;28;20044;-65
2023/05/29 08:45:53;;;;;;;43.20;16.55;;;;;;;26.16;74.55;99729.16;10521494;28;20035;-66
2023/05/29 08:50:56;;;;;;;19.13;7.13;;;;;;;26.33;72.03;99713.19;10525950;28;20048;-65
2023/05/29 08:55:57;;;;;;;36.95;10.88;;;;;;;26.93;69.29;99703.84;10518262;28;20633;-65
2023/05/29 09:00:59;;;;;;;16.83;8.18;;;;;;;27.52;67.22;99699.75;10526348;28;20051;-66
2023/05/29 09:06:00;;;;;;;21.83;6.55;;;;;;;27.57;64.24;99636.13;10515960;28;20109;-65
2023/05/29 09:11:01;;;;;;;11.02;5.35;;;;;;;27.61;60.82;99597.06;10515515;28;20052;-65
2023/05/29 09:16:03;;;;;;;12.18;4.40;;;;;;;28.16;58.69;99676.34;10518079;28;20057;-66
2023/05/29 09:21:11;;;;;;;14.07;4.22;;;;;;;28.51;57.05;99665.88;10513609;28;20036;-66
2023/05/29 09:26:14;;;;;;;25.67;5.18;;;;;;;28.23;54.67;99501.16;10514159;28;20063;-66
2023/05/29 09:31:20;;;;;;;29.90;4.50;;;;;;;29.46;54.26;99624.94;10523790;28;20064;-66
2023/05/29 09:36:22;;;;;;;11.13;4.38;;;;;;;29.14;51.06;99568.59;10511396;28;20041;-66
2023/05/29 09:41:24;;;;;;;19.77;9.32;;;;;;;29.52;50.09;99642.06;10512776;28;20040;-66
2023/05/29 09:46:24;;;;;;;35.15;17.17;;;;;;;29.95;49.40;99614.97;10518045;28;20499;-65
2023/05/29 09:51:26;;;;;;;17.13;8.15;;;;;;;30.07;48.89;99647.25;10511191;28;20040;-66
2023/05/29 09:56:28;;;;;;;14.80;6.82;;;;;;;29.82;49.20;99645.19;10511630;28;20032;-66
2023/05/29 10:01:29;;;;;;;18.20;7.50;;;;;;;29.51;49.71;99644.00;10510808;28;20381;-66
2023/05/29 10:06:30;;;;;;;10.93;4.35;;;;;;;29.34;49.42;99636.44;10517217;28;20048;-66
2023/05/29 10:11:33;;;;;;;13.43;6.47;;;;;;;29.18;49.37;99607.84;10538860;28;20579;-65
2023/05/29 10:16:41;;;;;;;15.27;4.93;;;;;;;28.84;49.06;99554.47;10519087;28;20098;-65
2023/05/29 10:21:44;;;;;;;10.57;3.85;;;;;;;29.34;48.81;99627.44;10502959;28;20047;-65
2023/05/29 10:26:47;;;;;;;;;;;;;;;29.98;48.74;99619.03;10502654;28;20063;-65
2023/05/29 10:32:12;;;;;;;10.82;3.72;;;;;;;30.02;45.39;99636.44;10516484;28;20329;-65
2023/05/29 10:37:29;;;;;;;43.63;5.85;;;;;;;29.70;47.01;99629.31;10544444;28;20048;-65
2023/05/29 10:42:47;;;;;;;17.23;4.75;;;;;;;29.76;46.84;99604.25;10544839;28;20043;-65
2023/05/29 10:47:48;;;;;;;16.80;4.75;;;;;;;29.82;46.55;99593.97;10543574;28;20101;-65
2023/05/29 10:52:49;;;;;;;13.52;4.10;;;;;;;30.09;45.92;99581.19;10543724;28;20046;-65
2023/05/29 10:57:50;;;;;;;18.23;4.68;;;;;;;30.44;44.26;99555.53;10543835;28;20108;-65
2023/05/29 11:02:52;;;;;;;15.07;4.55;;;;;;;31.14;41.62;99594.00;10543498;28;20047;-65
2023/05/29 11:08:00;;;;;;;11.52;4.05;;;;;;;31.29;40.96;99574.31;10542733;28;20518;-65
2023/05/29 11:13:04;;;;;;;11.90;3.45;;;;;;;31.38;37.79;99582.53;10541718;28;20130;-65
2023/05/29 11:18:08;;;;;;;14.05;4.20;;;;;;;31.64;36.09;99582.50;10541732;28;20044;-67
2023/05/29 11:23:17;;;;;;;21.63;4.75;;;;;;;31.99;38.17;99590.66;10540451;28;20116;-66
2023/05/29 11:28:18;;;;;;;15.45;4.88;;;;;;;31.75;36.20;99575.53;10542624;28;20059;-65
2023/05/29 11:33:26;;;;;;;10.80;4.47;;;;;;;31.98;38.05;99580.78;10541925;28;20059;-65
2023/05/29 11:38:28;;;;;;;17.40;4.22;;;;;;;32.02;36.89;99584.50;10541517;28;20063;-64
2023/05/29 11:43:29;;;;;;;11.70;4.50;;;;;;;31.95;36.50;99573.22;10541844;28;20039;-65
2023/05/29 11:48:30;;;;;;;16.17;4.65;;;;;;;31.82;35.64;99548.34;10542124;28;20052;-65
2023/05/29 11:53:31;;;;;;;14.30;4.43;;;;;;;31.98;35.71;99556.91;10541682;28;20109;-65
2023/05/29 11:58:32;;;;;;;9.63;4.03;;;;;;;31.60;34.90;99488.22;10540667;28;20036;-65
2023/05/29 12:03:40;;;;;;;20.63;4.80;;;;;;;32.04;33.68;99563.00;10540957;28;20036;-65
2023/05/29 12:08:41;;;;;;;11.00;4.10;;;;;;;31.69;33.64;99499.97;10540265;28;20047;-65
2023/05/29 12:13:42;;;;;;;118.90;9.07;;;;;;;32.18;35.06;99558.06;10540906;28;20042;-66
2023/05/29 12:18:44;;;;;;;27.42;4.53;;;;;;;32.38;34.36;99555.72;10539998;28;20043;-65
2023/05/29 12:23:45;;;;;;;25.67;4.25;;;;;;;32.27;34.62;99545.09;10538117;28;20039;-66
2023/05/29 12:28:46;;;;;;;11.00;3.70;;;;;;;32.26;33.80;99543.47;10538289;28;20059;-66
2023/05/29 12:33:46;;;;;;;18.70;4.68;;;;;;;32.29;33.46;99537.31;10539793;28;20130;-67
2023/05/29 12:38:51;;;;;;;18.25;4.50;;;;;;;32.38;32.83;99550.22;10539115;28;20036;-67
2023/05/29 12:43:58;;;;;;;14.00;3.95;;;;;;;32.41;32.89;99544.03;10537649;28;20105;-67
2023/05/29 12:49:12;;;;;;;10.43;4.07;;;;;;;32.32;31.93;99494.63;10539744;28;20567;-65
2023/05/29 12:54:16;;;;;;;13.00;4.68;;;;;;;32.57;31.16;99545.09;10538141;28;20561;-68
2023/05/29 12:59:17;;;;;;;25.27;4.10;;;;;;;32.57;31.30;99539.59;10537951;28;20131;-66
2023/05/29 13:04:18;;;;;;;7.25;3.92;;;;;;;32.24;31.96;99490.78;10538004;28;20441;-66
2023/05/29 13:09:19;;;;;;;11.65;4.00;;;;;;;32.13;31.21;99461.28;10531238;28;20050;-67
2023/05/29 13:14:19;;;;;;;22.40;4.93;;;;;;;32.83;31.36;99555.88;10523340;28;20463;-67
2023/05/29 13:19:20;;;;;;;8.38;3.83;;;;;;;32.67;31.37;99552.16;10538301;28;20483;-65
2023/05/29 13:24:21;;;;;;;10.15;3.63;;;;;;;32.74;30.96;99539.47;10538295;28;20040;-66
2023/05/29 13:29:22;;;;;;;13.45;4.68;;;;;;;32.70;31.30;99524.78;10537946;28;20052;-66
2023/05/29 13:34:25;;;;;;;18.17;4.18;;;;;;;32.58;31.13;99541.22;10537319;28;20036;-66
2023/05/29 13:39:28;;;;;;;65.30;42.85;;;;;;;32.55;31.28;99525.38;10537000;28;20040;-65
2023/05/29 13:44:29;;;;;;;20.38;8.13;;;;;;;32.56;31.46;99526.19;10536571;28;20032;-66
2023/05/29 13:49:30;;;;;;;11.38;5.20;;;;;;;32.18;31.33;99461.09;10537616;28;20052;-66
2023/05/29 13:54:35;;;;;;;9.85;4.25;;;;;;;32.55;31.35;99521.81;10538121;28;20040;-66
2023/05/29 13:59:35;;;;;;;26.27;21.90;;;;;;;32.32;31.48;99524.06;10536554;28;20036;-66
2023/05/29 14:04:38;;;;;;;32.70;15.52;;;;;;;32.19;32.13;99534.97;10537649;28;20048;-66
2023/05/29 14:09:39;;;;;;;20.63;6.88;;;;;;;31.90;32.60;99523.97;10537226;28;20123;-66
2023/05/29 14:14:40;;;;;;;19.02;6.20;;;;;;;31.54;32.47;99537.00;10537806;28;20043;-67
2023/05/29 14:19:41;;;;;;;21.85;4.97;;;;;;;31.12;33.42;99513.97;10536412;28;20039;-66
2023/05/29 14:24:42;;;;;;;11.57;4.53;;;;;;;30.24;37.25;99484.91;10536322;28;20412;-67
2023/05/29 14:29:43;;;;;;;11.70;4.07;;;;;;;29.83;39.51;99534.56;10536553;28;20055;-66
2023/05/29 14:34:44;;;;;;;14.05;4.30;;;;;;;29.33;40.68;99530.09;10536581;28;20196;-68
2023/05/29 14:39:44;;;;;;;10.13;3.78;;;;;;;29.00;41.50;99544.00;10537758;28;20549;-66
2023/05/29 14:44:45;;;;;;;10.82;3.33;;;;;;;28.75;42.27;99531.75;10535742;28;20040;-66
2023/05/29 14:49:46;;;;;;;13.60;4.20;;;;;;;28.87;43.00;99561.25;10535796;28;20044;-66
2023/05/29 14:54:47;;;;;;;10.60;3.80;;;;;;;28.89;43.45;99559.81;10534638;28;20035;-66
2023/05/29 14:59:47;;;;;;;9.48;4.15;;;;;;;29.02;43.96;99560.13;10543225;28;20086;-66
2023/05/29 15:04:48;;;;;;;19.90;4.85;;;;;;;29.05;44.19;99568.50;10542866;28;20040;-66
2023/05/29 15:09:49;;;;;;;10.95;4.07;;;;;;;28.88;44.40;99527.34;10542561;28;20048;-68
2023/05/29 15:14:50;;;;;;;22.02;4.93;;;;;;;29.02;44.21;99546.47;10542965;28;20469;-66
2023/05/29 15:19:51;;;;;;;27.10;20.25;;;;;;;28.92;45.47;99554.84;10543040;28;20085;-65
2023/05/29 15:24:51;;;;;;;20.27;11.98;;;;;;;28.38;46.79;99514.47;10537883;28;20438;-67
2023/05/29 15:29:52;;;;;;;22.40;14.27;;;;;;;27.97;47.67;99468.09;10533885;28;20056;-65
2023/05/29 15:34:53;;;;;;;23.02;10.15;;;;;;;28.22;49.07;99554.97;10538659;28;20032;-65
2023/05/29 15:39:55;;;;;;;22.42;8.82;;;;;;;28.04;50.19;99587.84;10542342;28;20061;-65
2023/05/29 15:44:56;;;;;;;29.55;7.13;;;;;;;27.70;50.35;99569.84;10541786;28;20132;-65
2023/05/29 15:49:57;;;;;;;50.67;32.50;;;;;;;27.52;50.59;99591.47;10541595;28;20047;-65
2023/05/29 15:54:58;;;;;;;77.85;49.00;;;;;;;27.39;50.71;99596.88;10541339;28;20047;-66
2023/05/29 15:59:59;;;;;;;26.58;15.77;;;;;;;27.11;50.77;99591.28;10541372;28;20043;-66
2023/05/29 16:05:00;;;;;;;19.55;12.10;;;;;;;26.66;50.14;99532.81;10541486;28;20439;-65
2023/05/29 16:10:02;;;;;;;25.95;12.32;;;;;;;26.98;49.98;99624.72;10540660;28;20122;-65
2023/05/29 16:15:03;;;;;;;17.03;9.03;;;;;;;26.81;49.84;99623.31;10540551;28;20105;-65
2023/05/29 16:20:05;;;;;;;11.65;6.82;;;;;;;26.52;49.99;99612.53;10540553;28;20509;-65
2023/05/29 16:25:06;;;;;;;39.13;26.15;;;;;;;26.28;49.75;99607.06;10539932;28;20040;-65
2023/05/29 16:30:08;;;;;;;13.57;7.20;;;;;;;26.27;49.86;99631.88;10537009;28;20067;-66
2023/05/29 16:35:09;;;;;;;20.77;10.38;;;;;;;26.03;50.53;99610.88;10532873;28;20051;-66
2023/05/29 16:40:11;;;;;;;16.70;7.40;;;;;;;25.96;50.68;99615.84;10532835;28;20040;-67
2023/05/29 16:45:11;;;;;;;51.13;36.10;;;;;;;25.82;50.94;99620.34;10533801;28;20039;-67
2023/05/29 16:50:12;;;;;;;34.60;21.15;;;;;;;25.38;51.21;99583.16;10533879;28;20044;-66
2023/05/29 16:55:13;;;;;;;30.02;17.70;;;;;;;24.63;51.62;99482.88;10532874;28;20132;-66
2023/05/29 17:00:14;;;;;;;26.40;20.33;;;;;;;25.27;51.61;99609.59;10532551;28;20044;-65
2023/05/29 17:05:15;;;;;;;65.97;44.63;;;;;;;25.28;51.55;99627.56;10538341;28;20051;-66
2023/05/29 17:10:17;;;;;;;40.08;28.08;;;;;;;24.71;52.26;99559.16;10537975;28;20408;-67
2023/05/29 17:15:18;;;;;;;31.55;21.95;;;;;;;24.18;53.37;99490.16;10536985;28;20040;-65
2023/05/29 17:20:18;;;;;;;16.55;7.85;;;;;;;24.77;52.62;99609.63;10536764;28;20046;-65
2023/05/29 17:25:19;;;;;;;18.42;6.60;;;;;;;24.75;52.57;99619.97;10536781;28;20130;-66
2023/05/29 17:30:20;;;;;;;11.75;4.90;;;;;;;24.81;51.83;99639.75;10538784;28;20512;-65
2023/05/29 17:35:21;;;;;;;14.77;6.25;;;;;;;24.74;52.46;99639.22;10537172;28;20044;-66
2023/05/29 17:40:22;;;;;;;19.00;7.90;;;;;;;24.62;52.19;99636.03;10538356;28;20083;-66
2023/05/29 17:45:22;;;;;;;12.88;6.78;;;;;;;24.44;52.29;99622.00;10537120;28;20043;-66
2023/05/29 17:50:23;;;;;;;14.10;4.88;;;;;;;24.42;52.16;99629.59;10536372;28;20135;-66
2023/05/29 17:55:24;;;;;;;16.42;7.50;;;;;;;24.40;51.89;99639.88;10524681;28;20402;-66
2023/05/29 18:00:25;;;;;;;13.25;5.18;;;;;;;24.24;52.22;99624.75;10511704;28;20079;-66
2023/05/29 18:05:25;;;;;;;17.08;5.15;;;;;;;24.32;52.08;99643.16;10532676;28;20491;-66
2023/05/29 18:10:28;;;;;;;11.20;5.10;;;;;;;24.23;52.57;99655.66;10537192;28;20044;-67
2023/05/29 18:15:28;;;;;;;12.23;5.18;;;;;;;24.18;52.51;99653.78;10535787;28;20044;-66
2023/05/29 18:20:29;;;;;;;8.68;4.65;;;;;;;24.13;52.72;99659.22;10536870;28;20036;-66
2023/05/29 18:25:30;;;;;;;14.23;4.53;;;;;;;24.00;53.42;99663.31;10536756;28;20044;-66
2023/05/29 18:30:31;;;;;;;15.88;4.85;;;;;;;23.97;53.71;99658.44;10540917;28;20056;-66
2023/05/29 18:35:32;;;;;;;13.35;4.55;;;;;;;23.94;53.11;99660.91;10545288;28;20051;-66
2023/05/29 18:40:33;;;;;;;11.50;3.63;;;;;;;23.47;53.27;99595.78;10543788;28;20035;-66
2023/05/29 18:45:35;;;;;;;14.07;4.28;;;;;;;23.91;53.79;99687.47;10544289;28;20062;-66
2023/05/29 18:50:37;;;;;;;22.88;5.78;;;;;;;23.81;54.75;99683.94;10543009;28;20051;-66
2023/05/29 18:55:38;;;;;;;11.93;5.38;;;;;;;23.19;54.86;99582.78;10537662;28;20037;-66
2023/05/29 19:00:39;;;;;;;12.95;4.85;;;;;;;23.22;55.23;99606.63;10542026;28;20043;-66
2023/05/29 19:05:43;;;;;;;27.40;10.77;;;;;;;23.61;55.77;99688.25;10542875;28;20044;-66
2023/05/29 19:10:43;;;;;;;15.52;7.80;;;;;;;23.46;56.62;99672.78;10542776;28;20069;-66
2023/05/29 19:15:44;;;;;;;16.63;5.63;;;;;;;23.22;57.38;99668.97;10540920;28;20039;-67
2023/05/29 19:20:45;;;;;;;11.25;4.50;;;;;;;22.91;57.87;99624.69;10542444;28;20093;-66
2023/05/29 19:25:46;;;;;;;18.17;4.43;;;;;;;23.02;59.11;99656.97;10541970;28;20568;-66
2023/05/29 19:30:46;;;;;;;16.20;6.80;;;;;;;22.93;59.86;99655.84;10541236;28;20044;-66
2023/05/29 19:35:47;;;;;;;10.13;5.13;;;;;;;22.90;60.33;99661.78;10541609;28;20040;-66
2023/05/29 19:40:48;;;;;;;16.42;5.80;;;;;;;22.84;60.67;99659.34;10539960;28;20040;-66
2023/05/29 19:45:49;;;;;;;12.43;4.55;;;;;;;22.66;61.59;99647.88;10540893;28;20044;-66
2023/05/29 19:50:50;;;;;;;19.40;8.23;;;;;;;22.48;62.68;99624.00;10542497;28;20040;-66
2023/05/29 19:55:51;;;;;;;19.98;9.27;;;;;;;22.31;63.26;99611.47;10540823;28;20129;-66
2023/05/29 20:00:54;;;;;;;12.82;5.97;;;;;;;22.33;63.20;99625.53;10541239;28;20081;-66
2023/05/29 20:05:55;;;;;;;12.23;5.25;;;;;;;22.34;63.26;99637.19;10540213;28;20568;-66
2023/05/29 20:10:55;;;;;;;15.80;6.40;;;;;;;22.23;63.71;99639.03;10540287;28;20071;-66
2023/05/29 20:15:57;;;;;;;15.25;4.93;;;;;;;22.17;64.19;99625.75;10540282;28;20131;-66
2023/05/29 20:20:57;;;;;;;20.77;5.90;;;;;;;22.02;64.37;99608.31;10541265;28;20074;-66
2023/05/29 20:25:58;;;;;;;11.93;5.35;;;;;;;22.03;64.51;99609.13;10540537;28;20044;-66
2023/05/29 20:30:59;;;;;;;12.38;4.38;;;;;;;21.98;64.65;99606.38;10539206;28;20527;-66
2023/05/29 20:36:01;;;;;;;10.05;5.10;;;;;;;21.58;65.32;99562.59;10539894;28;20106;-66
2023/05/29 20:41:02;;;;;;;11.07;4.82;;;;;;;21.69;66.09;99590.53;10539303;28;20388;-66
2023/05/29 20:46:04;;;;;;;10.48;4.32;;;;;;;21.49;66.06;99566.03;10539873;28;20040;-66
2023/05/29 20:51:06;;;;;;;13.67;4.83;;;;;;;20.89;66.90;99471.53;10539200;28;20209;-66
2023/05/29 20:56:07;;;;;;;9.30;4.20;;;;;;;21.57;67.06;99592.59;10538665;28;20122;-66
2023/05/29 21:01:08;;;;;;;9.98;4.53;;;;;;;21.03;67.62;99498.09;10538464;28;20119;-66
2023/05/29 21:06:08;;;;;;;10.30;4.80;;;;;;;21.47;68.25;99570.88;10538359;28;20042;-66
2023/05/29 21:11:09;;;;;;;15.32;5.80;;;;;;;21.32;68.05;99558.03;10537903;28;20082;-66
2023/05/29 21:16:10;;;;;;;9.50;4.78;;;;;;;21.30;68.42;99568.28;10536797;28;20466;-66
2023/05/29 21:21:11;;;;;;;12.88;5.22;;;;;;;21.24;69.00;99564.75;10536565;28;20048;-66
2023/05/29 21:26:12;;;;;;;12.15;5.07;;;;;;;21.12;69.08;99573.00;10537640;28;20043;-67
2023/05/29 21:31:14;;;;;;;26.08;5.53;;;;;;;20.74;69.52;99515.41;10538969;28;20504;-66
2023/05/29 21:36:15;;;;;;;18.80;6.10;;;;;;;20.57;69.88;99487.69;10538276;28;20087;-66
2023/05/29 21:41:18;;;;;;;18.60;5.68;;;;;;;20.75;70.31;99538.63;10537166;28;20090;-66
2023/05/29 21:46:19;;;;;;;11.43;5.00;;;;;;;20.87;70.76;99573.56;10536216;28;20085;-66
2023/05/29 21:51:20;;;;;;;15.65;5.30;;;;;;;20.76;71.40;99574.53;10537628;28;20138;-66
2023/05/29 21:56:21;;;;;;;11.90;4.85;;;;;;;20.34;71.63;99512.22;10536918;28;20122;-66
2023/05/29 22:01:22;;;;;;;10.27;4.68;;;;;;;19.78;72.06;99423.44;10536371;28;20032;-66
2023/05/29 22:06:23;;;;;;;10.02;5.05;;;;;;;20.66;72.86;99550.13;10543704;28;20044;-66
2023/05/29 22:11:25;;;;;;;7.75;4.90;;;;;;;20.70;72.29;99562.03;10546634;28;20040;-66
2023/05/29 22:16:26;;;;;;;13.27;5.07;;;;;;;20.49;72.55;99553.72;10544207;28;20043;-66
2023/05/29 22:21:27;;;;;;;9.98;4.82;;;;;;;20.13;72.75;99511.19;10543707;28;20032;-66
2023/05/29 22:26:28;;;;;;;13.68;4.68;;;;;;;20.59;73.06;99576.50;10545605;28;20048;-66
2023/05/29 22:31:29;;;;;;;9.50;4.68;;;;;;;20.58;73.47;99567.59;10544147;28;20083;-66
2023/05/29 22:36:30;;;;;;;14.02;5.25;;;;;;;20.43;74.41;99551.19;10545568;28;20079;-66
2023/05/29 22:41:31;;;;;;;11.73;5.38;;;;;;;20.08;75.15;99497.66;10544365;28;20143;-66
2023/05/29 22:46:31;;;;;;;12.48;4.95;;;;;;;20.35;74.73;99538.16;10543715;28;20098;-65
2023/05/29 22:51:32;;;;;;;12.95;5.50;;;;;;;20.33;74.98;99533.00;10543376;28;20040;-66
2023/05/29 22:56:33;;;;;;;13.63;4.90;;;;;;;19.53;74.22;99392.38;10543432;28;20044;-65
2023/05/29 23:01:33;;;;;;;8.98;4.55;;;;;;;20.26;74.13;99508.13;10543015;28;20050;-66
2023/05/29 23:06:34;;;;;;;13.10;5.22;;;;;;;20.32;74.16;99539.47;10542926;28;20198;-66